createdAt,value
2022-08-09T00:00:00.706Z,16.80
2022-08-09T00:02:31.632Z,16.74
2022-08-09T00:05:03.208Z,16.67
2022-08-09T00:07:45.381Z,16.63
2022-08-09T00:10:18.154Z,16.65
2022-08-09T00:12:51.677Z,16.60
2022-08-09T00:15:19.903Z,16.56
2022-08-09T00:18:09.398Z,16.60
2022-08-09T00:20:42.113Z,16.59
2022-08-09T00:23:55.013Z,16.56
2022-08-09T00:26:05.243Z,16.54
2022-08-09T00:28:32.287Z,16.63
2022-08-09T00:31:09.177Z,16.47
2022-08-09T00:33:51.799Z,16.43
2022-08-09T00:36:19.592Z,16.41
2022-08-09T00:38:46.701Z,16.30
2022-08-09T00:44:10.788Z,16.39
2022-08-09T00:44:13.488Z,16.38
2022-08-09T00:46:57.804Z,16.35
2022-08-09T00:49:36.698Z,16.32
2022-08-09T00:52:17.364Z,16.28
2022-08-09T00:54:45.286Z,16.34
2022-08-09T00:57:12.605Z,16.25
2022-08-09T00:59:47.147Z,16.21
2022-08-09T01:02:22.109Z,16.24
2022-08-09T01:04:57.377Z,16.23
2022-08-09T01:07:37.662Z,16.21
2022-08-09T01:10:51.864Z,16.21
2022-08-09T01:13:58.911Z,16.18
2022-08-09T01:16:36.970Z,16.16
2022-08-09T01:19:39.727Z,16.09
2022-08-09T01:22:28.354Z,15.97
2022-08-09T01:25:41.875Z,16.02
2022-08-09T01:28:10.670Z,15.96
2022-08-09T01:30:51.325Z,15.91
2022-08-09T01:33:26.298Z,15.99
2022-08-09T01:36:07.167Z,15.96
2022-08-09T01:38:44.263Z,16.03
2022-08-09T01:41:18.572Z,15.83
2022-08-09T01:43:55.778Z,15.86
2022-08-09T01:46:29.332Z,15.82
2022-08-09T01:49:10.474Z,15.83
2022-08-09T01:51:44.647Z,15.72
2022-08-09T01:54:24.148Z,15.74
2022-08-09T01:56:52.582Z,15.57
2022-08-09T01:59:21.356Z,15.65
2022-08-09T02:01:59.103Z,15.59
2022-08-09T02:04:29.573Z,15.60
2022-08-09T02:07:18.120Z,15.59
2022-08-09T02:10:04.455Z,15.49
2022-08-09T02:12:33.948Z,15.48
2022-08-09T02:15:02.774Z,15.46
2022-08-09T02:18:00.944Z,15.52
2022-08-09T02:20:26.221Z,15.42
2022-08-09T02:22:59.526Z,15.38
2022-08-09T02:25:30.826Z,15.34
2022-08-09T02:28:04.057Z,15.39
2022-08-09T02:30:44.627Z,15.37
2022-08-09T02:33:18.717Z,15.46
2022-08-09T02:36:03.896Z,15.33
2022-08-09T02:38:35.759Z,15.23
2022-08-09T02:41:08.668Z,15.37
2022-08-09T02:43:42.479Z,15.34
2022-08-09T02:46:24.674Z,15.29
2022-08-09T02:48:54.949Z,15.22
2022-08-09T02:51:26.565Z,15.12
2022-08-09T02:54:00.786Z,15.23
2022-08-09T02:56:30.420Z,15.24
2022-08-09T02:58:57.966Z,15.04
2022-08-09T03:01:29.302Z,15.17
2022-08-09T03:04:19.423Z,15.19
2022-08-09T03:06:48.946Z,15.20
2022-08-09T03:09:17.396Z,15.14
2022-08-09T03:12:05.491Z,15.14
2022-08-09T03:14:31.993Z,15.06
2022-08-09T03:17:02.866Z,15.05
2022-08-09T03:19:59.685Z,14.99
2022-08-09T03:22:25.579Z,15.03
2022-08-09T03:25:21.515Z,15.03
2022-08-09T03:27:51.359Z,15.05
2022-08-09T03:30:29.902Z,15.03
2022-08-09T03:33:01.924Z,14.94
2022-08-09T03:36:13.756Z,14.95
2022-08-09T03:38:28.706Z,14.93
2022-08-09T03:40:57.921Z,14.89
2022-08-09T03:43:24.745Z,14.76
2022-08-09T03:46:03.949Z,14.72
2022-08-09T03:48:51.510Z,14.72
2022-08-09T03:51:55.267Z,14.80
2022-08-09T03:54:10.653Z,14.81
2022-08-09T03:56:40.963Z,14.70
2022-08-09T03:59:17.175Z,14.69
2022-08-09T04:01:50.121Z,14.68
2022-08-09T04:04:18.193Z,14.69
2022-08-09T04:06:48.790Z,14.62
2022-08-09T04:09:47.501Z,14.63
2022-08-09T04:12:11.880Z,14.69
2022-08-09T04:15:00.539Z,14.68
2022-08-09T04:17:29.608Z,14.53
2022-08-09T04:19:56.594Z,14.56
2022-08-09T04:22:23.551Z,14.43
2022-08-09T04:24:50.283Z,14.53
2022-08-09T04:27:22.165Z,14.43
2022-08-09T04:29:49.429Z,14.47
2022-08-09T04:32:23.580Z,14.49
2022-08-09T04:34:58.284Z,14.45
2022-08-09T04:37:45.916Z,14.38
2022-08-09T04:40:19.708Z,14.46
2022-08-09T04:43:00.889Z,14.36
2022-08-09T04:45:30.502Z,14.41
2022-08-09T04:48:03.049Z,14.61
2022-08-09T04:50:34.890Z,14.46
2022-08-09T04:53:13.141Z,14.38
2022-08-09T04:55:57.897Z,14.45
2022-08-09T04:58:25.710Z,14.46
2022-08-09T05:00:54.309Z,14.43
2022-08-09T05:03:40.277Z,14.59
2022-08-09T05:06:08.874Z,14.57
2022-08-09T05:08:35.962Z,14.49
2022-08-09T05:11:03.756Z,14.59
2022-08-09T05:13:34.071Z,14.63
2022-08-09T05:16:07.012Z,14.73
2022-08-09T05:18:50.852Z,14.75
2022-08-09T05:21:24.714Z,14.82
2022-08-09T05:24:01.498Z,14.86
2022-08-09T05:26:36.702Z,14.90
2022-08-09T05:29:21.143Z,14.84
2022-08-09T05:31:57.065Z,14.97
2022-08-09T05:34:30.749Z,15.02
2022-08-09T05:37:06.089Z,15.12
2022-08-09T05:39:43.775Z,15.26
2022-08-09T05:42:20.607Z,15.20
2022-08-09T05:44:50.938Z,15.49
2022-08-09T05:47:19.689Z,15.50
2022-08-09T05:50:23.611Z,15.50
2022-08-09T05:52:36.307Z,15.44
2022-08-09T05:55:07.320Z,15.47
2022-08-09T05:57:50.839Z,15.73
2022-08-09T06:00:22.765Z,15.76
2022-08-09T06:02:49.351Z,15.85
2022-08-09T06:05:21.042Z,16.03
2022-08-09T06:08:09.163Z,16.00
2022-08-09T06:10:38.117Z,16.19
2022-08-09T06:13:12.233Z,16.49
2022-08-09T06:15:46.768Z,17.15
2022-08-09T06:18:14.121Z,17.26
2022-08-09T06:20:42.999Z,17.41
2022-08-09T06:23:17.207Z,17.23
2022-08-09T06:25:43.780Z,17.22
2022-08-09T06:28:10.391Z,17.83
2022-08-09T06:30:40.655Z,17.58
2022-08-09T06:33:30.486Z,17.52
2022-08-09T06:35:58.346Z,17.94
2022-08-09T06:38:37.240Z,18.41
2022-08-09T06:41:18.550Z,18.61
2022-08-09T06:43:47.063Z,18.86
2022-08-09T06:46:39.885Z,18.06
2022-08-09T06:49:00.694Z,18.15
2022-08-09T06:51:28.124Z,17.62
2022-08-09T06:53:55.538Z,17.87
2022-08-09T06:56:30.844Z,18.36
2022-08-09T07:00:50.244Z,18.59
2022-08-09T07:01:54.486Z,18.44
2022-08-09T07:04:27.100Z,19.06
2022-08-09T07:06:59.901Z,19.06
2022-08-09T07:09:57.141Z,19.22
2022-08-09T07:12:18.106Z,19.24
2022-08-09T07:14:51.270Z,18.88
2022-08-09T07:17:20.168Z,19.30
2022-08-09T07:19:51.021Z,20.14
2022-08-09T07:22:34.281Z,20.12
2022-08-09T07:25:09.989Z,19.42
2022-08-09T07:27:43.133Z,19.80
2022-08-09T07:30:21.850Z,20.10
2022-08-09T07:32:51.922Z,20.27
2022-08-09T07:35:19.280Z,20.05
2022-08-09T07:37:47.969Z,19.92
2022-08-09T07:40:20.251Z,19.52
2022-08-09T07:42:54.346Z,19.43
2022-08-09T07:45:39.531Z,19.51
2022-08-09T07:48:25.934Z,20.47
2022-08-09T07:51:09.824Z,20.50
2022-08-09T07:54:06.829Z,20.10
2022-08-09T07:56:33.916Z,20.26
2022-08-09T07:59:00.676Z,20.86
2022-08-09T08:01:33.035Z,21.20
2022-08-09T08:04:03.861Z,21.54
2022-08-09T08:06:36.846Z,21.45
2022-08-09T08:09:18.331Z,21.56
2022-08-09T08:12:11.233Z,21.61
2022-08-09T08:14:46.245Z,21.87
2022-08-09T08:17:14.167Z,21.29
2022-08-09T08:19:59.517Z,20.90
2022-08-09T08:22:26.258Z,20.75
2022-08-09T08:24:58.270Z,20.54
2022-08-09T08:27:26.506Z,21.45
2022-08-09T08:30:07.421Z,20.59
2022-08-09T08:32:52.521Z,21.24
2022-08-09T08:35:22.574Z,22.10
2022-08-09T08:38:02.081Z,21.89
2022-08-09T08:40:36.921Z,22.16
2022-08-09T08:43:13.354Z,21.41
2022-08-09T08:45:51.517Z,21.44
2022-08-09T08:48:22.866Z,21.68
2022-08-09T08:50:56.519Z,21.50
2022-08-09T08:53:23.416Z,21.99
2022-08-09T08:55:59.178Z,22.27
2022-08-09T08:58:29.616Z,21.52
2022-08-09T09:00:58.191Z,21.76
2022-08-09T09:03:37.733Z,21.51
2022-08-09T09:06:07.178Z,21.78
2022-08-09T09:08:42.157Z,22.89
2022-08-09T09:11:13.613Z,22.26
2022-08-09T09:13:56.594Z,22.73
2022-08-09T09:16:30.238Z,21.61
2022-08-09T09:19:21.461Z,23.19
2022-08-09T09:22:03.939Z,22.30
2022-08-09T09:24:35.045Z,22.03
2022-08-09T09:27:06.696Z,22.33
2022-08-09T09:30:08.612Z,21.59
2022-08-09T09:32:32.448Z,22.33
2022-08-09T09:35:09.231Z,22.10
2022-08-09T09:37:40.263Z,22.46
2022-08-09T09:40:09.191Z,22.84
2022-08-09T09:42:36.309Z,23.25
2022-08-09T09:45:08.384Z,23.67
2022-08-09T09:47:47.754Z,22.74
2022-08-09T09:50:17.144Z,22.31
2022-08-09T09:52:56.090Z,23.56
2022-08-09T09:55:32.130Z,23.74
2022-08-09T09:58:18.101Z,23.73
2022-08-09T10:00:54.597Z,22.86
2022-08-09T10:03:57.713Z,22.80
2022-08-09T10:06:42.944Z,23.61
2022-08-09T10:09:22.574Z,23.55
2022-08-09T10:12:11.955Z,24.27
2022-08-09T10:14:47.950Z,24.55
2022-08-09T10:17:39.498Z,23.35
2022-08-09T10:20:35.649Z,23.02
2022-08-09T10:23:21.188Z,23.99
2022-08-09T10:26:06.096Z,23.42
2022-08-09T10:28:36.689Z,23.63
2022-08-09T10:34:09.868Z,22.94
2022-08-09T10:36:39.816Z,22.78
2022-08-09T10:39:14.003Z,23.38
2022-08-09T10:41:42.940Z,23.12
2022-08-09T10:44:10.566Z,23.12
2022-08-09T10:47:00.941Z,23.27
2022-08-09T10:49:42.500Z,22.99
2022-08-09T10:52:42.794Z,23.04
2022-08-09T10:55:28.960Z,23.43
2022-08-09T10:58:37.129Z,23.37
2022-08-09T11:03:07.401Z,23.83
2022-08-09T11:04:27.840Z,23.38
2022-08-09T11:07:00.261Z,23.45
2022-08-09T11:09:47.438Z,24.16
2022-08-09T11:12:26.440Z,23.93
2022-08-09T11:15:04.398Z,23.64
2022-08-09T11:17:31.829Z,23.89
2022-08-09T11:20:10.964Z,24.16
2022-08-09T11:22:55.434Z,23.72
2022-08-09T11:25:36.183Z,23.89
2022-08-09T11:28:34.628Z,23.89
2022-08-09T11:31:49.743Z,23.33
2022-08-09T11:34:42.851Z,23.63
2022-08-09T11:37:18.385Z,23.96
2022-08-09T11:40:07.092Z,24.39
2022-08-09T11:42:45.065Z,24.55
2022-08-09T11:45:41.984Z,24.70
2022-08-09T11:48:19.517Z,23.95
2022-08-09T11:52:53.871Z,24.51
2022-08-09T11:54:01.818Z,24.63
2022-08-09T11:56:41.809Z,23.97
2022-08-09T11:59:11.700Z,24.26
2022-08-09T12:02:34.674Z,24.42
2022-08-09T12:04:32.506Z,23.98
2022-08-09T12:07:07.804Z,23.70
2022-08-09T12:09:36.155Z,24.37
2022-08-09T12:12:12.228Z,24.21
2022-08-09T12:15:04.054Z,24.43
2022-08-09T12:17:44.556Z,25.26
2022-08-09T12:20:16.505Z,24.38
2022-08-09T12:22:50.370Z,24.77
2022-08-09T12:25:36.766Z,24.29
2022-08-09T12:29:09.802Z,24.62
2022-08-09T12:31:30.855Z,25.26
2022-08-09T12:34:06.221Z,25.00
2022-08-09T12:36:33.975Z,24.47
2022-08-09T12:39:02.667Z,24.32
2022-08-09T12:41:38.987Z,24.59
2022-08-09T12:44:09.755Z,24.95
2022-08-09T12:46:48.823Z,24.42
2022-08-09T12:49:17.967Z,24.83
2022-08-09T12:52:02.695Z,24.66
2022-08-09T12:55:03.159Z,24.52
2022-08-09T12:57:47.059Z,24.51
2022-08-09T13:00:25.566Z,25.13
2022-08-09T13:03:01.007Z,24.54
2022-08-09T13:05:51.642Z,24.45
2022-08-09T13:08:40.011Z,24.90
2022-08-09T13:11:23.198Z,25.37
2022-08-09T13:14:37.288Z,24.25
2022-08-09T13:16:50.924Z,25.22
2022-08-09T13:20:06.878Z,25.76
2022-08-09T13:22:35.261Z,25.79
2022-08-09T13:25:07.462Z,25.14
2022-08-09T13:27:55.333Z,25.64
2022-08-09T13:31:11.793Z,24.86
2022-08-09T13:33:52.161Z,25.91
2022-08-09T13:36:39.947Z,26.98
2022-08-09T13:41:45.824Z,26.48
2022-08-09T13:42:00.894Z,25.74
2022-08-09T13:44:29.352Z,26.37
2022-08-09T13:47:27.325Z,26.69
2022-08-09T13:49:57.434Z,25.93
2022-08-09T13:52:28.338Z,26.38
2022-08-09T13:54:59.849Z,26.19
2022-08-09T13:57:36.538Z,26.76
2022-08-09T14:00:27.258Z,26.24
2022-08-09T14:03:04.263Z,26.78
2022-08-09T14:05:59.305Z,27.43
2022-08-09T14:08:29.766Z,27.70
2022-08-09T14:10:56.763Z,27.50
2022-08-09T14:14:15.286Z,27.14
2022-08-09T14:16:17.323Z,26.56
2022-08-09T14:18:49.455Z,26.23
2022-08-09T14:21:23.376Z,26.03
2022-08-09T14:23:53.641Z,26.62
2022-08-09T14:26:25.389Z,27.29
2022-08-09T14:28:57.522Z,26.20
2022-08-09T14:31:36.382Z,27.26
2022-08-09T14:34:12.278Z,27.37
2022-08-09T14:36:39.772Z,27.11
2022-08-09T14:39:10.365Z,28.15
2022-08-09T14:41:40.441Z,27.85
2022-08-09T14:44:09.625Z,27.86
2022-08-09T14:47:03.035Z,28.56
2022-08-09T14:49:26.752Z,28.60
2022-08-09T14:51:58.919Z,26.96
2022-08-09T14:54:28.172Z,27.17
2022-08-09T14:56:57.638Z,28.43
2022-08-09T14:59:25.219Z,26.88
2022-08-09T15:01:53.829Z,26.71
2022-08-09T15:04:23.705Z,26.28
2022-08-09T15:06:51.319Z,26.47
2022-08-09T15:10:04.151Z,27.89
2022-08-09T15:12:08.186Z,28.51
2022-08-09T15:14:38.806Z,27.83
2022-08-09T15:17:09.894Z,27.87
2022-08-09T15:19:59.351Z,28.26
2022-08-09T15:22:25.868Z,27.92
2022-08-09T15:24:53.654Z,28.01
2022-08-09T15:27:21.054Z,26.91
2022-08-09T15:30:57.290Z,27.99
2022-08-09T15:32:35.335Z,27.23
2022-08-09T15:35:01.979Z,27.96
2022-08-09T15:37:57.186Z,27.27
2022-08-09T15:40:34.015Z,27.87
2022-08-09T15:43:01.814Z,27.56
2022-08-09T15:45:29.401Z,27.87
2022-08-09T15:48:05.577Z,27.43
2022-08-09T15:50:43.514Z,27.03
2022-08-09T15:53:17.758Z,27.54
2022-08-09T15:56:11.119Z,27.63
2022-08-09T15:58:33.085Z,27.78
2022-08-09T16:01:01.294Z,27.47
2022-08-09T16:03:38.166Z,27.78
2022-08-09T16:06:16.162Z,28.03
2022-08-09T16:08:56.071Z,28.64
2022-08-09T16:11:22.715Z,28.06
2022-08-09T16:14:05.334Z,27.18
2022-08-09T16:16:39.013Z,27.14
2022-08-09T16:19:10.291Z,26.20
2022-08-09T16:21:42.074Z,25.91
2022-08-09T16:24:29.920Z,25.89
2022-08-09T16:27:00.720Z,25.85
2022-08-09T16:29:36.962Z,25.64
2022-08-09T16:32:18.883Z,25.21
2022-08-09T16:34:56.439Z,25.25
2022-08-09T16:37:53.351Z,25.13
2022-08-09T16:40:14.179Z,24.99
2022-08-09T16:42:47.975Z,24.81
2022-08-09T16:45:19.617Z,24.83
2022-08-09T16:48:39.964Z,24.75
2022-08-09T16:50:38.677Z,24.84
2022-08-09T16:53:06.129Z,24.61
2022-08-09T16:55:58.384Z,24.83
2022-08-09T16:58:20.920Z,24.69
2022-08-09T17:00:48.591Z,25.09
2022-08-09T17:03:21.765Z,24.70
2022-08-09T17:06:06.614Z,24.98
2022-08-09T17:08:42.775Z,25.45
2022-08-09T17:11:13.810Z,25.04
2022-08-09T17:13:45.133Z,24.79
2022-08-09T17:16:12.112Z,24.87
2022-08-09T17:18:39.063Z,24.45
2022-08-09T17:21:05.702Z,24.44
2022-08-09T17:24:20.870Z,24.48
2022-08-09T17:26:31.359Z,24.52
2022-08-09T17:29:04.727Z,24.53
2022-08-09T17:31:38.660Z,24.54
2022-08-09T17:34:20.289Z,24.44
2022-08-09T17:36:53.988Z,24.39
2022-08-09T17:39:25.122Z,24.12
2022-08-09T17:41:51.980Z,24.28
2022-08-09T17:44:41.676Z,24.16
2022-08-09T17:47:06.020Z,23.84
2022-08-09T17:49:37.316Z,24.08
2022-08-09T17:52:21.994Z,23.86
2022-08-09T17:54:49.672Z,23.93
2022-08-09T17:57:20.717Z,23.92
2022-08-09T18:00:05.419Z,23.86
2022-08-09T18:02:34.235Z,23.56
2022-08-09T18:05:00.862Z,23.20
2022-08-09T18:07:27.487Z,23.41
2022-08-09T18:10:04.761Z,23.32
2022-08-09T18:12:40.638Z,23.30
2022-08-09T18:15:18.915Z,23.25
2022-08-09T18:18:03.554Z,23.05
2022-08-09T18:20:57.267Z,22.97
2022-08-09T18:24:09.763Z,22.85
2022-08-09T18:26:06.041Z,22.91
2022-08-09T18:30:38.265Z,22.78
2022-08-09T18:31:32.395Z,22.83
2022-08-09T18:34:07.323Z,22.66
2022-08-09T18:36:36.228Z,22.59
2022-08-09T18:39:04.893Z,22.57
2022-08-09T18:41:34.745Z,22.49
2022-08-09T18:44:03.220Z,22.32
2022-08-09T18:46:49.767Z,22.18
2022-08-09T18:49:18.333Z,22.30
2022-08-09T18:51:55.544Z,22.34
2022-08-09T18:54:28.453Z,22.26
2022-08-09T18:56:57.366Z,22.14
2022-08-09T18:59:43.904Z,22.00
2022-08-09T19:02:17.776Z,21.87
2022-08-09T19:04:47.923Z,21.89
2022-08-09T19:07:31.582Z,21.76
2022-08-09T19:10:16.740Z,21.51
2022-08-09T19:12:50.581Z,21.62
2022-08-09T19:15:22.816Z,21.64
2022-08-09T19:17:56.094Z,21.55
2022-08-09T19:20:24.926Z,21.50
2022-08-09T19:22:54.732Z,21.55
2022-08-09T19:25:42.647Z,21.36
2022-08-09T19:28:13.154Z,21.31
2022-08-09T19:30:44.619Z,21.28
2022-08-09T19:33:19.327Z,21.27
2022-08-09T19:35:57.370Z,21.28
2022-08-09T19:38:26.875Z,21.35
2022-08-09T19:40:54.185Z,21.12
2022-08-09T19:43:58.047Z,21.20
2022-08-09T19:46:13.463Z,21.12
2022-08-09T19:49:02.247Z,20.84
2022-08-09T19:51:30.724Z,20.96
2022-08-09T19:53:59.039Z,20.85
2022-08-09T19:56:28.758Z,20.82
2022-08-09T19:59:39.276Z,20.78
2022-08-09T20:01:52.171Z,20.61
2022-08-09T20:04:37.606Z,20.62
2022-08-09T20:07:12.453Z,20.61
2022-08-09T20:09:47.843Z,20.50
2022-08-09T20:12:37.562Z,20.46
2022-08-09T20:15:10.315Z,20.41
2022-08-09T20:17:54.207Z,20.35
2022-08-09T20:20:21.369Z,20.24
2022-08-09T20:22:48.789Z,20.25
2022-08-09T20:25:22.717Z,20.13
2022-08-09T20:27:49.844Z,20.12
2022-08-09T20:30:18.077Z,20.00
2022-08-09T20:32:52.303Z,20.11
2022-08-09T20:35:20.394Z,20.13
2022-08-09T20:38:24.059Z,20.02
2022-08-09T20:40:35.776Z,19.88
2022-08-09T20:43:19.059Z,19.80
2022-08-09T20:45:59.418Z,19.85
2022-08-09T20:48:30.608Z,19.84
2022-08-09T20:50:58.468Z,19.69
2022-08-09T20:53:37.319Z,19.88
2022-08-09T20:56:21.139Z,19.77
2022-08-09T20:58:54.637Z,19.87
2022-08-09T21:01:34.560Z,19.76
2022-08-09T21:05:54.029Z,19.78
2022-08-09T21:06:58.723Z,19.82
2022-08-09T21:09:41.605Z,19.81
2022-08-09T21:14:41.807Z,19.79
2022-08-09T21:18:21.577Z,19.76
2022-08-09T21:20:04.659Z,19.68
2022-08-09T21:22:47.096Z,19.67
2022-08-09T21:25:37.700Z,19.62
2022-08-09T21:28:07.102Z,19.61
2022-08-09T21:30:34.427Z,19.49
2022-08-09T21:33:05.835Z,19.58
2022-08-09T21:35:40.861Z,19.50
2022-08-09T21:38:18.669Z,19.46
2022-08-09T21:40:58.124Z,19.47
2022-08-09T21:43:57.827Z,19.44
2022-08-09T21:46:12.391Z,19.48
2022-08-09T21:48:42.641Z,19.34
2022-08-09T21:51:24.007Z,19.30
2022-08-09T21:53:54.616Z,19.24
2022-08-09T21:56:33.971Z,19.10
2022-08-09T21:59:09.316Z,19.20
2022-08-09T22:01:59.067Z,19.12
2022-08-09T22:04:55.053Z,19.01
2022-08-09T22:07:10.273Z,18.96
2022-08-09T22:09:41.007Z,18.95
2022-08-09T22:12:18.142Z,18.99
2022-08-09T22:14:46.180Z,18.95
2022-08-09T22:17:13.291Z,18.88
2022-08-09T22:19:58.877Z,18.97
2022-08-09T22:22:27.941Z,18.95
2022-08-09T22:26:06.549Z,18.89
2022-08-09T22:27:41.079Z,18.81
2022-08-09T22:30:09.689Z,18.91
2022-08-09T22:32:37.102Z,18.81
2022-08-09T22:35:06.691Z,18.79
2022-08-09T22:38:03.431Z,18.84
2022-08-09T22:40:35.027Z,18.84
2022-08-09T22:43:17.101Z,18.75
2022-08-09T22:48:18.480Z,18.72
2022-08-09T22:48:36.806Z,18.76
2022-08-09T22:51:10.740Z,18.56
2022-08-09T22:53:58.679Z,18.67
2022-08-09T22:56:31.398Z,18.57
2022-08-09T22:59:06.133Z,18.56
2022-08-09T23:01:48.972Z,18.43
2022-08-09T23:04:16.333Z,18.54
2022-08-09T23:07:02.542Z,18.44
2022-08-09T23:09:29.223Z,18.36
2022-08-09T23:11:55.881Z,18.40
2022-08-09T23:14:31.473Z,18.31
2022-08-09T23:17:08.222Z,18.33
2022-08-09T23:20:07.040Z,18.29
2022-08-09T23:22:24.059Z,18.21
2022-08-09T23:24:50.729Z,18.15
2022-08-09T23:27:17.546Z,18.12
2022-08-09T23:29:44.412Z,18.12
2022-08-09T23:32:12.064Z,18.13
2022-08-09T23:34:38.762Z,18.10
2022-08-09T23:37:06.077Z,18.06
2022-08-09T23:39:32.999Z,18.02
2022-08-09T23:41:59.849Z,17.97
2022-08-09T23:44:26.579Z,17.97
2022-08-09T23:46:57.197Z,17.94
2022-08-09T23:49:25.195Z,17.88
2022-08-09T23:51:53.079Z,17.87
2022-08-09T23:54:20.542Z,17.84
2022-08-09T23:56:53.723Z,17.81
2022-08-09T23:59:23.408Z,17.83
